メインページ
METAR-TAF:

METAR-TAF

空港 :

Wiarton, オンタリオ州, カナダ

緯度: 44-45N, 経度: 081-06W, 海抜: 222m

現時点の気象観測

当レポートは1時間9分前の09:00(UTC)に作成
の風 6kt、北西から北東の間で変化する
気温 -11°C
湿度 72%
気圧 1020 hPa
視程: 24.1km
高度2800ftの曇り

METAR: CYVV 230900Z 35006KT 310V040 15SM OVC028 M11/M15 A3012 RMK SC8 SLP219

時間: 05:09 (10:09 UTC)

予報

当レポートは14時間31分前の19:38(UTC)に作成
予報は22日の 20時(UTC)から 22日の 24時(UTC)まで有効
北西の風 10kt
視程: 10km
高度2000ftの雲は散在している
22日の 20時(UTC)から 22日の 24時(UTC)まで一時的に
視程: 6.4km
高度2000ftの曇り
弱いにわか雪
確率 40%
22日の 20時(UTC)から 22日の 24時(UTC)まで
視程: 1.2km
高度800ftの
弱いにわか雪

TAF: CYVV 221938Z 2220/2224 32010KT P6SM SCT020 TEMPO 2220/2224 4SM -SHSN OVC020 PROB40 2220/2224 3/4SM -SHSN VV008 RMK NXT FCST WILL BE ISSUED AT 231145Z

4,000以上の空港の気象観測と天気予報(METAR報とTAF報)

利用可能な観測所は地図上に黄色い丸と赤い丸で示す。

丸の上にカーソルを重ねると観測所名を参照できる。

次にクリックすると気象観測と天気予報を参照できる。

マップの切り替え:黒色「×」印の緑ボタンをクリックして拡大、「-」印の緑ボタンをクリックして縮小、緑色の三角印をクリックして隣りの地図に切り替え


METAR-TAF: